sensor_id;sensor_type;location;lat;lon;timestamp;pressure;altitude;pressure_sealevel;temperature;humidity
31331;BME280;34067;39.548;-76.088;2023-04-25T00:01:20;101800.59;;;10.64;30.47
31331;BME280;34067;39.548;-76.088;2023-04-25T00:03:48;101804.70;;;11.89;30.09
31331;BME280;34067;39.548;-76.088;2023-04-25T00:06:16;101809.71;;;11.07;30.06
31331;BME280;34067;39.548;-76.088;2023-04-25T00:08:44;101808.42;;;10.37;30.44
31331;BME280;34067;39.548;-76.088;2023-04-25T00:11:12;101812.81;;;11.10;30.31
31331;BME280;34067;39.548;-76.088;2023-04-25T00:13:41;101819.06;;;10.19;30.63
31331;BME280;34067;39.548;-76.088;2023-04-25T00:16:09;101818.38;;;10.90;30.86
31331;BME280;34067;39.548;-76.088;2023-04-25T00:18:37;101825.40;;;10.43;31.29
31331;BME280;34067;39.548;-76.088;2023-04-25T00:21:05;101828.08;;;10.08;31.58
31331;BME280;34067;39.548;-76.088;2023-04-25T00:23:33;101832.09;;;9.58;31.36
31331;BME280;34067;39.548;-76.088;2023-04-25T00:26:02;101828.99;;;10.66;31.34
31331;BME280;34067;39.548;-76.088;2023-04-25T00:28:30;101835.42;;;11.52;30.53
31331;BME280;34067;39.548;-76.088;2023-04-25T00:30:58;101835.38;;;10.91;31.03
31331;BME280;34067;39.548;-76.088;2023-04-25T00:33:26;101835.99;;;11.01;30.95
31331;BME280;34067;39.548;-76.088;2023-04-25T00:35:53;101840.35;;;10.65;31.41
31331;BME280;34067;39.548;-76.088;2023-04-25T00:38:21;101845.71;;;11.62;31.01
31331;BME280;34067;39.548;-76.088;2023-04-25T00:40:50;101853.40;;;10.90;31.37
31331;BME280;34067;39.548;-76.088;2023-04-25T00:43:18;101856.88;;;10.28;32.16
31331;BME280;34067;39.548;-76.088;2023-04-25T00:45:47;101860.34;;;9.83;32.22
31331;BME280;34067;39.548;-76.088;2023-04-25T00:48:15;101867.40;;;9.43;33.07
31331;BME280;34067;39.548;-76.088;2023-04-25T00:50:51;101872.06;;;10.20;32.36
31331;BME280;34067;39.548;-76.088;2023-04-25T00:53:19;101880.70;;;9.32;32.88
31331;BME280;34067;39.548;-76.088;2023-04-25T00:55:48;101882.61;;;9.40;32.72
31331;BME280;34067;39.548;-76.088;2023-04-25T00:58:15;101886.80;;;8.60;33.52
31331;BME280;34067;39.548;-76.088;2023-04-25T01:00:44;101886.56;;;8.96;33.07
31331;BME280;34067;39.548;-76.088;2023-04-25T01:03:13;101891.45;;;9.05;32.71
31331;BME280;34067;39.548;-76.088;2023-04-25T01:05:41;101891.92;;;8.44;33.11
31331;BME280;34067;39.548;-76.088;2023-04-25T01:08:09;101890.57;;;8.75;33.08
31331;BME280;34067;39.548;-76.088;2023-04-25T01:10:38;101897.80;;;8.25;33.53
31331;BME280;34067;39.548;-76.088;2023-04-25T01:13:06;101898.23;;;9.11;33.45
31331;BME280;34067;39.548;-76.088;2023-04-25T01:15:33;101901.31;;;9.17;32.89
31331;BME280;34067;39.548;-76.088;2023-04-25T01:18:02;101902.06;;;8.39;33.63
31331;BME280;34067;39.548;-76.088;2023-04-25T01:20:32;101901.37;;;8.42;33.42
31331;BME280;34067;39.548;-76.088;2023-04-25T01:23:01;101905.79;;;8.63;33.30
31331;BME280;34067;39.548;-76.088;2023-04-25T01:25:30;101908.37;;;8.65;33.28
31331;BME280;34067;39.548;-76.088;2023-04-25T01:27:58;101909.95;;;8.98;33.16
31331;BME280;34067;39.548;-76.088;2023-04-25T01:30:27;101911.89;;;10.14;32.55
31331;BME280;34067;39.548;-76.088;2023-04-25T01:32:56;101915.84;;;10.37;32.21
31331;BME280;34067;39.548;-76.088;2023-04-25T01:35:24;101914.67;;;9.51;32.84
31331;BME280;34067;39.548;-76.088;2023-04-25T01:37:52;101920.29;;;8.91;33.11
31331;BME280;34067;39.548;-76.088;2023-04-25T01:40:21;101922.11;;;9.29;32.63
31331;BME280;34067;39.548;-76.088;2023-04-25T01:42:50;101923.22;;;9.58;32.28
31331;BME280;34067;39.548;-76.088;2023-04-25T01:45:19;101926.89;;;8.83;32.48
31331;BME280;34067;39.548;-76.088;2023-04-25T01:47:47;101928.56;;;9.39;31.87
31331;BME280;34067;39.548;-76.088;2023-04-25T01:50:16;101934.59;;;9.21;32.17
31331;BME280;34067;39.548;-76.088;2023-04-25T01:52:44;101937.94;;;10.02;31.19
31331;BME280;34067;39.548;-76.088;2023-04-25T01:55:12;101940.75;;;10.79;30.71
31331;BME280;34067;39.548;-76.088;2023-04-25T01:57:40;101944.38;;;10.25;31.28
31331;BME280;34067;39.548;-76.088;2023-04-25T02:00:10;101953.14;;;9.57;32.52
31331;BME280;34067;39.548;-76.088;2023-04-25T02:02:38;101952.71;;;10.08;31.46
31331;BME280;34067;39.548;-76.088;2023-04-25T02:05:07;101950.36;;;10.04;31.17
31331;BME280;34067;39.548;-76.088;2023-04-25T02:07:35;101949.50;;;9.26;31.22
31331;BME280;34067;39.548;-76.088;2023-04-25T02:10:04;101947.35;;;8.82;31.34
31331;BME280;34067;39.548;-76.088;2023-04-25T02:12:31;101955.49;;;8.37;31.54
31331;BME280;34067;39.548;-76.088;2023-04-25T02:15:00;101953.24;;;8.67;32.40
31331;BME280;34067;39.548;-76.088;2023-04-25T02:17:28;101950.97;;;9.63;32.39
31331;BME280;34067;39.548;-76.088;2023-04-25T02:19:56;101957.96;;;7.93;32.65
31331;BME280;34067;39.548;-76.088;2023-04-25T02:22:24;101952.59;;;9.77;31.76
31331;BME280;34067;39.548;-76.088;2023-04-25T02:24:53;101956.70;;;9.71;31.90
31331;BME280;34067;39.548;-76.088;2023-04-25T02:27:22;101968.27;;;8.43;32.92
31331;BME280;34067;39.548;-76.088;2023-04-25T02:29:50;101978.57;;;7.92;33.59
31331;BME280;34067;39.548;-76.088;2023-04-25T02:32:18;101973.02;;;8.17;34.49
31331;BME280;34067;39.548;-76.088;2023-04-25T02:34:46;101979.08;;;8.04;33.74
31331;BME280;34067;39.548;-76.088;2023-04-25T02:37:14;101974.56;;;8.26;33.53
31331;BME280;34067;39.548;-76.088;2023-04-25T02:39:43;101977.00;;;8.46;33.66
31331;BME280;34067;39.548;-76.088;2023-04-25T02:42:11;101983.13;;;8.85;33.20
31331;BME280;34067;39.548;-76.088;2023-04-25T02:44:39;101985.15;;;8.11;33.76
31331;BME280;34067;39.548;-76.088;2023-04-25T02:47:07;101985.93;;;8.26;33.83
31331;BME280;34067;39.548;-76.088;2023-04-25T02:49:36;101987.66;;;8.06;34.00
31331;BME280;34067;39.548;-76.088;2023-04-25T02:52:04;101990.95;;;8.37;33.73
31331;BME280;34067;39.548;-76.088;2023-04-25T02:54:32;101987.37;;;7.81;34.21
31331;BME280;34067;39.548;-76.088;2023-04-25T02:57:00;101986.65;;;7.74;34.98
31331;BME280;34067;39.548;-76.088;2023-04-25T02:59:29;101985.79;;;7.19;34.89
31331;BME280;34067;39.548;-76.088;2023-04-25T03:01:57;101983.08;;;7.27;35.97
31331;BME280;34067;39.548;-76.088;2023-04-25T03:04:25;101982.17;;;7.19;35.09
31331;BME280;34067;39.548;-76.088;2023-04-25T03:06:54;101988.94;;;7.70;34.65
31331;BME280;34067;39.548;-76.088;2023-04-25T03:09:22;101983.85;;;7.55;34.78
31331;BME280;34067;39.548;-76.088;2023-04-25T03:11:50;101989.89;;;7.37;34.75
31331;BME280;34067;39.548;-76.088;2023-04-25T03:14:18;101997.17;;;7.26;35.28
31331;BME280;34067;39.548;-76.088;2023-04-25T03:16:46;101991.04;;;7.49;35.44
31331;BME280;34067;39.548;-76.088;2023-04-25T03:19:14;101992.60;;;6.98;36.11
31331;BME280;34067;39.548;-76.088;2023-04-25T03:21:43;101998.18;;;7.08;36.14
31331;BME280;34067;39.548;-76.088;2023-04-25T03:24:12;102005.07;;;7.21;35.98
31331;BME280;34067;39.548;-76.088;2023-04-25T03:26:39;102005.21;;;6.37;37.12
31331;BME280;34067;39.548;-76.088;2023-04-25T03:29:07;102000.20;;;6.94;37.62
31331;BME280;34067;39.548;-76.088;2023-04-25T03:31:36;102009.24;;;6.87;38.13
31331;BME280;34067;39.548;-76.088;2023-04-25T03:34:04;102006.91;;;7.60;37.85
31331;BME280;34067;39.548;-76.088;2023-04-25T03:36:32;102007.86;;;6.52;39.05
31331;BME280;34067;39.548;-76.088;2023-04-25T03:39:00;102019.29;;;5.86;39.84
31331;BME280;34067;39.548;-76.088;2023-04-25T03:41:28;102007.24;;;6.27;40.18
31331;BME280;34067;39.548;-76.088;2023-04-25T03:43:56;102018.68;;;6.40;40.49
31331;BME280;34067;39.548;-76.088;2023-04-25T03:46:24;102018.81;;;6.63;40.96
31331;BME280;34067;39.548;-76.088;2023-04-25T03:48:52;102024.97;;;5.86;41.38
31331;BME280;34067;39.548;-76.088;2023-04-25T03:51:21;102022.61;;;6.65;40.63
31331;BME280;34067;39.548;-76.088;2023-04-25T03:53:50;102028.58;;;6.65;40.68
31331;BME280;34067;39.548;-76.088;2023-04-25T03:56:17;102033.96;;;6.70;40.49
31331;BME280;34067;39.548;-76.088;2023-04-25T03:58:46;102018.01;;;5.70;41.82
31331;BME280;34067;39.548;-76.088;2023-04-25T04:01:14;102017.76;;;6.27;41.63
31331;BME280;34067;39.548;-76.088;2023-04-25T04:03:42;102016.65;;;6.39;41.36
31331;BME280;34067;39.548;-76.088;2023-04-25T04:06:10;102007.02;;;6.28;41.46
31331;BME280;34067;39.548;-76.088;2023-04-25T04:08:38;102007.93;;;6.40;42.26
31331;BME280;34067;39.548;-76.088;2023-04-25T04:11:06;102019.74;;;6.55;41.35
31331;BME280;34067;39.548;-76.088;2023-04-25T04:13:33;102027.28;;;6.28;41.73
31331;BME280;34067;39.548;-76.088;2023-04-25T04:16:00;102030.03;;;6.15;41.15
31331;BME280;34067;39.548;-76.088;2023-04-25T04:18:28;102042.13;;;6.46;41.47
31331;BME280;34067;39.548;-76.088;2023-04-25T04:20:55;102030.12;;;5.25;44.54
31331;BME280;34067;39.548;-76.088;2023-04-25T04:23:23;102040.95;;;5.78;41.54
31331;BME280;34067;39.548;-76.088;2023-04-25T04:25:51;102066.73;;;6.15;42.08
31331;BME280;34067;39.548;-76.088;2023-04-25T04:28:18;102053.33;;;6.17;41.84
31331;BME280;34067;39.548;-76.088;2023-04-25T04:30:47;102050.79;;;6.47;41.67
31331;BME280;34067;39.548;-76.088;2023-04-25T04:33:14;102066.97;;;6.25;41.79
31331;BME280;34067;39.548;-76.088;2023-04-25T04:35:42;102064.99;;;6.24;41.84
31331;BME280;34067;39.548;-76.088;2023-04-25T04:38:10;102064.10;;;5.80;41.65
31331;BME280;34067;39.548;-76.088;2023-04-25T04:40:37;102064.86;;;4.88;43.86
31331;BME280;34067;39.548;-76.088;2023-04-25T04:43:04;102067.26;;;6.76;42.67
31331;BME280;34067;39.548;-76.088;2023-04-25T04:45:32;102074.37;;;5.90;42.74
31331;BME280;34067;39.548;-76.088;2023-04-25T04:47:59;102067.72;;;6.38;42.45
31331;BME280;34067;39.548;-76.088;2023-04-25T04:50:27;102067.87;;;6.35;42.64
31331;BME280;34067;39.548;-76.088;2023-04-25T04:52:55;102066.84;;;5.79;43.52
31331;BME280;34067;39.548;-76.088;2023-04-25T04:55:23;102066.29;;;6.35;43.19
31331;BME280;34067;39.548;-76.088;2023-04-25T04:57:52;102064.95;;;7.36;42.37
31331;BME280;34067;39.548;-76.088;2023-04-25T05:03:10;102066.83;;;6.09;43.95
31331;BME280;34067;39.548;-76.088;2023-04-25T05:05:38;102066.06;;;6.48;43.21
31331;BME280;34067;39.548;-76.088;2023-04-25T05:08:06;102065.24;;;6.40;44.89
31331;BME280;34067;39.548;-76.088;2023-04-25T05:10:34;102067.19;;;7.21;43.53
31331;BME280;34067;39.548;-76.088;2023-04-25T05:13:02;102066.82;;;6.20;44.40
31331;BME280;34067;39.548;-76.088;2023-04-25T05:15:29;102072.77;;;7.18;43.74
31331;BME280;34067;39.548;-76.088;2023-04-25T05:17:56;102064.88;;;6.79;43.50
31331;BME280;34067;39.548;-76.088;2023-04-25T05:20:24;102065.30;;;6.11;43.99
31331;BME280;34067;39.548;-76.088;2023-04-25T05:22:52;102063.13;;;5.88;44.64
31331;BME280;34067;39.548;-76.088;2023-04-25T05:25:20;102066.65;;;6.41;44.37
31331;BME280;34067;39.548;-76.088;2023-04-25T05:27:48;102073.30;;;6.69;44.92
31331;BME280;34067;39.548;-76.088;2023-04-25T05:30:15;102064.93;;;6.18;44.96
31331;BME280;34067;39.548;-76.088;2023-04-25T05:32:43;102064.73;;;6.61;44.66
31331;BME280;34067;39.548;-76.088;2023-04-25T05:35:10;102067.01;;;6.08;45.47
31331;BME280;34067;39.548;-76.088;2023-04-25T05:37:37;102059.16;;;6.17;44.88
31331;BME280;34067;39.548;-76.088;2023-04-25T05:40:06;102054.95;;;6.97;44.38
31331;BME280;34067;39.548;-76.088;2023-04-25T05:42:35;102055.29;;;6.46;45.06
31331;BME280;34067;39.548;-76.088;2023-04-25T05:45:02;102047.57;;;5.91;46.32
31331;BME280;34067;39.548;-76.088;2023-04-25T05:47:30;102051.04;;;6.05;45.51
31331;BME280;34067;39.548;-76.088;2023-04-25T05:49:59;102045.01;;;6.20;45.83
31331;BME280;34067;39.548;-76.088;2023-04-25T05:52:27;102046.58;;;5.18;47.41
31331;BME280;34067;39.548;-76.088;2023-04-25T05:54:54;102045.25;;;4.59;50.27
31331;BME280;34067;39.548;-76.088;2023-04-25T05:57:22;102038.29;;;5.25;48.82
31331;BME280;34067;39.548;-76.088;2023-04-25T05:59:51;102039.41;;;4.52;50.21
31331;BME280;34067;39.548;-76.088;2023-04-25T06:02:20;102028.30;;;4.63;50.50
31331;BME280;34067;39.548;-76.088;2023-04-25T06:04:50;102030.47;;;4.90;50.56
31331;BME280;34067;39.548;-76.088;2023-04-25T06:07:18;102022.07;;;5.29;48.86
31331;BME280;34067;39.548;-76.088;2023-04-25T06:09:47;102015.98;;;5.97;48.27
31331;BME280;34067;39.548;-76.088;2023-04-25T06:12:15;102013.59;;;5.67;49.03
31331;BME280;34067;39.548;-76.088;2023-04-25T06:14:43;102013.43;;;6.14;47.25
31331;BME280;34067;39.548;-76.088;2023-04-25T06:17:10;102007.03;;;6.14;48.69
31331;BME280;34067;39.548;-76.088;2023-04-25T06:19:38;102001.05;;;5.88;50.08
31331;BME280;34067;39.548;-76.088;2023-04-25T06:22:07;101997.22;;;6.34;49.99
31331;BME280;34067;39.548;-76.088;2023-04-25T06:24:34;101999.56;;;5.79;50.17
31331;BME280;34067;39.548;-76.088;2023-04-25T06:27:01;101993.63;;;6.34;51.29
31331;BME280;34067;39.548;-76.088;2023-04-25T06:29:30;101994.09;;;6.18;50.47
31331;BME280;34067;39.548;-76.088;2023-04-25T06:31:58;102001.26;;;6.53;51.18
31331;BME280;34067;39.548;-76.088;2023-04-25T06:34:25;102003.98;;;5.60;52.88
31331;BME280;34067;39.548;-76.088;2023-04-25T06:36:53;102011.52;;;5.64;52.00
31331;BME280;34067;39.548;-76.088;2023-04-25T06:39:21;102011.38;;;4.87;53.19
31331;BME280;34067;39.548;-76.088;2023-04-25T06:41:49;102006.52;;;5.76;51.42
31331;BME280;34067;39.548;-76.088;2023-04-25T06:44:16;102013.38;;;5.70;50.96
31331;BME280;34067;39.548;-76.088;2023-04-25T06:46:44;102016.17;;;6.19;50.62
31331;BME280;34067;39.548;-76.088;2023-04-25T06:49:12;102006.66;;;4.88;51.27
31331;BME280;34067;39.548;-76.088;2023-04-25T06:51:41;102015.38;;;5.21;52.03
31331;BME280;34067;39.548;-76.088;2023-04-25T06:54:08;102019.13;;;5.89;50.74
31331;BME280;34067;39.548;-76.088;2023-04-25T06:56:36;102015.83;;;6.13;49.92
31331;BME280;34067;39.548;-76.088;2023-04-25T06:59:05;102018.88;;;7.14;49.54
31331;BME280;34067;39.548;-76.088;2023-04-25T07:01:32;102028.23;;;5.37;51.49
31331;BME280;34067;39.548;-76.088;2023-04-25T07:03:59;102026.51;;;7.08;49.69
31331;BME280;34067;39.548;-76.088;2023-04-25T07:06:27;102024.06;;;6.34;49.48
31331;BME280;34067;39.548;-76.088;2023-04-25T07:08:55;102022.17;;;7.18;48.34
31331;BME280;34067;39.548;-76.088;2023-04-25T07:11:22;102031.43;;;6.76;48.43
31331;BME280;34067;39.548;-76.088;2023-04-25T07:13:50;102034.00;;;6.33;50.47
31331;BME280;34067;39.548;-76.088;2023-04-25T07:16:17;102033.23;;;6.58;49.49
31331;BME280;34067;39.548;-76.088;2023-04-25T07:18:45;102031.40;;;6.28;49.27
31331;BME280;34067;39.548;-76.088;2023-04-25T07:21:13;102028.71;;;5.07;52.56
31331;BME280;34067;39.548;-76.088;2023-04-25T07:23:40;102037.59;;;5.38;57.40
31331;BME280;34067;39.548;-76.088;2023-04-25T07:26:08;102045.80;;;5.79;52.35
31331;BME280;34067;39.548;-76.088;2023-04-25T07:28:36;102054.12;;;5.35;54.05
31331;BME280;34067;39.548;-76.088;2023-04-25T07:31:04;102041.34;;;5.89;52.80
31331;BME280;34067;39.548;-76.088;2023-04-25T07:33:33;102037.66;;;5.67;52.42
31331;BME280;34067;39.548;-76.088;2023-04-25T07:36:00;102037.81;;;5.58;54.20
31331;BME280;34067;39.548;-76.088;2023-04-25T07:38:28;102036.34;;;6.45;51.45
31331;BME280;34067;39.548;-76.088;2023-04-25T07:40:55;102032.64;;;5.28;54.48
31331;BME280;34067;39.548;-76.088;2023-04-25T07:43:22;102042.31;;;4.84;54.39
31331;BME280;34067;39.548;-76.088;2023-04-25T07:45:50;102048.54;;;5.51;57.06
31331;BME280;34067;39.548;-76.088;2023-04-25T07:48:18;102056.73;;;4.84;57.23
31331;BME280;34067;39.548;-76.088;2023-04-25T07:50:47;102057.07;;;5.08;55.32
31331;BME280;34067;39.548;-76.088;2023-04-25T07:53:15;102058.72;;;5.61;53.64
31331;BME280;34067;39.548;-76.088;2023-04-25T07:55:44;102053.59;;;6.21;52.91
31331;BME280;34067;39.548;-76.088;2023-04-25T07:58:11;102054.80;;;5.60;53.08
31331;BME280;34067;39.548;-76.088;2023-04-25T08:00:40;102062.25;;;5.53;52.78
31331;BME280;34067;39.548;-76.088;2023-04-25T08:03:09;102068.29;;;5.95;52.93
31331;BME280;34067;39.548;-76.088;2023-04-25T08:05:36;102059.53;;;6.35;52.56
31331;BME280;34067;39.548;-76.088;2023-04-25T08:08:05;102063.72;;;5.93;53.28
31331;BME280;34067;39.548;-76.088;2023-04-25T08:10:33;102063.07;;;5.81;53.90
31331;BME280;34067;39.548;-76.088;2023-04-25T08:13:01;102066.19;;;6.37;51.99
31331;BME280;34067;39.548;-76.088;2023-04-25T08:15:29;102062.38;;;6.46;52.45
31331;BME280;34067;39.548;-76.088;2023-04-25T08:17:57;102065.93;;;4.92;54.97
31331;BME280;34067;39.548;-76.088;2023-04-25T08:20:24;102060.30;;;4.95;53.82
31331;BME280;34067;39.548;-76.088;2023-04-25T08:22:52;102066.93;;;4.58;55.81
31331;BME280;34067;39.548;-76.088;2023-04-25T08:25:19;102067.49;;;5.55;53.81
31331;BME280;34067;39.548;-76.088;2023-04-25T08:27:47;102060.02;;;5.95;53.61
31331;BME280;34067;39.548;-76.088;2023-04-25T08:30:16;102068.50;;;4.78;54.47
31331;BME280;34067;39.548;-76.088;2023-04-25T08:32:43;102059.13;;;5.20;54.52
31331;BME280;34067;39.548;-76.088;2023-04-25T08:35:11;102059.62;;;5.30;55.72
31331;BME280;34067;39.548;-76.088;2023-04-25T08:37:39;102070.88;;;4.65;57.52
31331;BME280;34067;39.548;-76.088;2023-04-25T08:40:07;102069.18;;;5.07;55.11
31331;BME280;34067;39.548;-76.088;2023-04-25T08:42:41;102066.55;;;5.45;54.22
31331;BME280;34067;39.548;-76.088;2023-04-25T08:45:09;102063.12;;;5.09;54.69
31331;BME280;34067;39.548;-76.088;2023-04-25T08:47:38;102062.46;;;5.15;55.18
31331;BME280;34067;39.548;-76.088;2023-04-25T08:50:07;102070.80;;;5.27;54.11
31331;BME280;34067;39.548;-76.088;2023-04-25T08:52:37;102065.22;;;5.53;54.46
31331;BME280;34067;39.548;-76.088;2023-04-25T08:55:09;102073.75;;;4.71;56.03
31331;BME280;34067;39.548;-76.088;2023-04-25T08:57:40;102070.88;;;4.99;55.58
31331;BME280;34067;39.548;-76.088;2023-04-25T09:00:10;102074.19;;;5.11;54.81
31331;BME280;34067;39.548;-76.088;2023-04-25T09:02:39;102071.39;;;3.74;58.39
31331;BME280;34067;39.548;-76.088;2023-04-25T09:05:08;102074.51;;;3.73;57.06
31331;BME280;34067;39.548;-76.088;2023-04-25T09:07:37;102076.60;;;3.96;57.98
31331;BME280;34067;39.548;-76.088;2023-04-25T09:10:04;102071.29;;;5.81;56.61
31331;BME280;34067;39.548;-76.088;2023-04-25T09:12:33;102072.03;;;4.58;56.26
31331;BME280;34067;39.548;-76.088;2023-04-25T09:15:05;102066.89;;;3.74;57.97
31331;BME280;34067;39.548;-76.088;2023-04-25T09:17:33;102066.40;;;4.47;57.80
31331;BME280;34067;39.548;-76.088;2023-04-25T09:20:10;102067.05;;;5.21;56.28
31331;BME280;34067;39.548;-76.088;2023-04-25T09:22:38;102065.90;;;5.89;56.24
31331;BME280;34067;39.548;-76.088;2023-04-25T09:25:10;102059.03;;;4.71;54.74
31331;BME280;34067;39.548;-76.088;2023-04-25T09:27:50;102065.26;;;5.47;56.81
31331;BME280;34067;39.548;-76.088;2023-04-25T09:30:19;102063.24;;;6.19;53.11
31331;BME280;34067;39.548;-76.088;2023-04-25T09:32:58;102070.01;;;5.16;53.32
31331;BME280;34067;39.548;-76.088;2023-04-25T09:35:36;102077.12;;;5.84;53.76
31331;BME280;34067;39.548;-76.088;2023-04-25T09:38:08;102082.19;;;5.20;54.47
31331;BME280;34067;39.548;-76.088;2023-04-25T09:40:40;102087.08;;;5.01;55.76
31331;BME280;34067;39.548;-76.088;2023-04-25T09:43:10;102088.43;;;4.86;58.20
31331;BME280;34067;39.548;-76.088;2023-04-25T09:45:42;102091.74;;;5.38;57.42
31331;BME280;34067;39.548;-76.088;2023-04-25T09:48:10;102087.79;;;4.12;57.41
31331;BME280;34067;39.548;-76.088;2023-04-25T09:50:39;102090.04;;;4.26;58.25
31331;BME280;34067;39.548;-76.088;2023-04-25T09:53:07;102089.37;;;4.97;57.73
31331;BME280;34067;39.548;-76.088;2023-04-25T09:55:35;102091.39;;;4.28;58.71
31331;BME280;34067;39.548;-76.088;2023-04-25T09:58:05;102093.80;;;3.86;60.90
31331;BME280;34067;39.548;-76.088;2023-04-25T10:00:33;102090.67;;;3.10;61.79
31331;BME280;34067;39.548;-76.088;2023-04-25T10:03:01;102095.06;;;4.07;62.23
31331;BME280;34067;39.548;-76.088;2023-04-25T10:05:32;102099.19;;;4.06;60.36
31331;BME280;34067;39.548;-76.088;2023-04-25T10:08:02;102101.33;;;3.90;60.01
31331;BME280;34067;39.548;-76.088;2023-04-25T10:10:31;102105.58;;;3.75;60.43
31331;BME280;34067;39.548;-76.088;2023-04-25T10:13:00;102113.20;;;4.22;60.60
31331;BME280;34067;39.548;-76.088;2023-04-25T10:15:28;102114.47;;;4.51;58.72
31331;BME280;34067;39.548;-76.088;2023-04-25T10:17:57;102118.38;;;4.01;57.62
31331;BME280;34067;39.548;-76.088;2023-04-25T10:20:26;102128.31;;;4.70;56.31
31331;BME280;34067;39.548;-76.088;2023-04-25T10:22:55;102129.00;;;5.03;57.03
31331;BME280;34067;39.548;-76.088;2023-04-25T10:25:25;102131.11;;;4.67;56.98
31331;BME280;34067;39.548;-76.088;2023-04-25T10:27:54;102133.08;;;4.23;57.70
31331;BME280;34067;39.548;-76.088;2023-04-25T10:30:22;102129.73;;;3.32;60.83
31331;BME280;34067;39.548;-76.088;2023-04-25T10:32:50;102137.95;;;4.05;60.79
31331;BME280;34067;39.548;-76.088;2023-04-25T10:35:19;102134.32;;;3.84;59.27
31331;BME280;34067;39.548;-76.088;2023-04-25T10:38:00;102138.54;;;4.37;59.96
31331;BME280;34067;39.548;-76.088;2023-04-25T10:40:30;102138.79;;;3.92;60.84
31331;BME280;34067;39.548;-76.088;2023-04-25T10:43:34;102138.27;;;4.34;61.44
31331;BME280;34067;39.548;-76.088;2023-04-25T10:46:03;102149.52;;;3.40;63.35
31331;BME280;34067;39.548;-76.088;2023-04-25T10:48:46;102145.90;;;3.05;66.39
31331;BME280;34067;39.548;-76.088;2023-04-25T10:51:18;102147.73;;;3.72;65.45
31331;BME280;34067;39.548;-76.088;2023-04-25T10:53:46;102146.04;;;3.98;63.43
31331;BME280;34067;39.548;-76.088;2023-04-25T10:56:19;102157.67;;;2.59;66.38
31331;BME280;34067;39.548;-76.088;2023-04-25T10:58:48;102165.21;;;2.77;66.33
31331;BME280;34067;39.548;-76.088;2023-04-25T11:01:21;102168.24;;;3.22;67.37
31331;BME280;34067;39.548;-76.088;2023-04-25T11:03:58;102171.74;;;3.56;72.91
31331;BME280;34067;39.548;-76.088;2023-04-25T11:06:32;102167.99;;;4.76;65.43
31331;BME280;34067;39.548;-76.088;2023-04-25T11:09:03;102155.47;;;3.60;72.74
31331;BME280;34067;39.548;-76.088;2023-04-25T11:11:37;102165.23;;;3.26;74.88
31331;BME280;34067;39.548;-76.088;2023-04-25T11:14:05;102169.36;;;4.61;66.82
31331;BME280;34067;39.548;-76.088;2023-04-25T11:16:32;102162.19;;;3.41;71.95
31331;BME280;34067;39.548;-76.088;2023-04-25T11:19:01;102161.21;;;3.57;74.13
31331;BME280;34067;39.548;-76.088;2023-04-25T11:21:29;102165.61;;;4.40;65.47
31331;BME280;34067;39.548;-76.088;2023-04-25T11:23:58;102164.08;;;3.93;70.64
31331;BME280;34067;39.548;-76.088;2023-04-25T11:26:27;102173.24;;;3.01;71.47
31331;BME280;34067;39.548;-76.088;2023-04-25T11:28:59;102182.21;;;3.35;72.80
31331;BME280;34067;39.548;-76.088;2023-04-25T11:31:27;102183.19;;;3.02;75.40
31331;BME280;34067;39.548;-76.088;2023-04-25T11:33:57;102184.92;;;3.54;76.26
31331;BME280;34067;39.548;-76.088;2023-04-25T11:36:26;102190.13;;;2.97;78.18
31331;BME280;34067;39.548;-76.088;2023-04-25T11:38:54;102185.26;;;2.86;79.44
31331;BME280;34067;39.548;-76.088;2023-04-25T11:41:23;102184.56;;;4.05;78.95
31331;BME280;34067;39.548;-76.088;2023-04-25T11:43:51;102185.91;;;3.59;81.16
31331;BME280;34067;39.548;-76.088;2023-04-25T11:46:19;102189.76;;;2.83;80.25
31331;BME280;34067;39.548;-76.088;2023-04-25T11:48:47;102189.27;;;3.70;74.97
31331;BME280;34067;39.548;-76.088;2023-04-25T11:51:15;102197.75;;;4.54;74.80
31331;BME280;34067;39.548;-76.088;2023-04-25T11:53:45;102199.35;;;3.69;79.95
31331;BME280;34067;39.548;-76.088;2023-04-25T11:56:13;102191.44;;;3.23;77.00
31331;BME280;34067;39.548;-76.088;2023-04-25T11:58:58;102189.87;;;4.19;83.27
31331;BME280;34067;39.548;-76.088;2023-04-25T12:01:28;102189.93;;;4.21;76.52
31331;BME280;34067;39.548;-76.088;2023-04-25T12:03:56;102194.15;;;3.73;81.83
31331;BME280;34067;39.548;-76.088;2023-04-25T12:06:27;102208.91;;;4.34;75.90
31331;BME280;34067;39.548;-76.088;2023-04-25T12:09:03;102214.08;;;3.88;82.39
31331;BME280;34067;39.548;-76.088;2023-04-25T12:11:32;102198.00;;;4.04;83.89
31331;BME280;34067;39.548;-76.088;2023-04-25T12:14:03;102211.86;;;4.48;80.82
31331;BME280;34067;39.548;-76.088;2023-04-25T12:16:41;102205.00;;;4.53;83.75
31331;BME280;34067;39.548;-76.088;2023-04-25T12:19:12;102206.79;;;5.07;73.41
31331;BME280;34067;39.548;-76.088;2023-04-25T12:21:41;102201.25;;;5.18;73.35
31331;BME280;34067;39.548;-76.088;2023-04-25T12:24:12;102199.49;;;3.73;73.98
31331;BME280;34067;39.548;-76.088;2023-04-25T12:26:49;102203.96;;;3.87;76.81
31331;BME280;34067;39.548;-76.088;2023-04-25T12:29:18;102202.82;;;4.68;79.25
31331;BME280;34067;39.548;-76.088;2023-04-25T12:31:45;102214.73;;;4.63;69.27
31331;BME280;34067;39.548;-76.088;2023-04-25T12:34:13;102210.81;;;4.23;72.85
31331;BME280;34067;39.548;-76.088;2023-04-25T12:36:41;102213.15;;;5.25;68.77
31331;BME280;34067;39.548;-76.088;2023-04-25T12:39:14;102219.38;;;4.59;71.37
31331;BME280;34067;39.548;-76.088;2023-04-25T12:41:43;102217.48;;;5.44;69.84
31331;BME280;34067;39.548;-76.088;2023-04-25T12:44:12;102211.68;;;4.04;72.40
31331;BME280;34067;39.548;-76.088;2023-04-25T12:46:40;102215.87;;;4.64;71.00
31331;BME280;34067;39.548;-76.088;2023-04-25T12:49:08;102218.85;;;4.83;70.08